sensor_id;sensor_type;location;lat;lon;timestamp;P1;durP1;ratioP1;P2;durP2;ratioP2
28613;SDS011;15806;53.548;9.964;2024-01-30T00:00:30;12.07;;;5.70;;
28613;SDS011;15806;53.548;9.964;2024-01-30T00:02:11;17.67;;;5.93;;
28613;SDS011;15806;53.548;9.964;2024-01-30T00:03:51;13.63;;;5.57;;
28613;SDS011;15806;53.548;9.964;2024-01-30T00:05:32;11.30;;;5.27;;
28613;SDS011;15806;53.548;9.964;2024-01-30T00:07:12;13.37;;;5.80;;
28613;SDS011;15806;53.548;9.964;2024-01-30T00:08:54;15.73;;;6.03;;
28613;SDS011;15806;53.548;9.964;2024-01-30T00:10:35;11.57;;;5.57;;
28613;SDS011;15806;53.548;9.964;2024-01-30T00:12:15;14.90;;;6.53;;
28613;SDS011;15806;53.548;9.964;2024-01-30T00:13:56;11.60;;;5.10;;
28613;SDS011;15806;53.548;9.964;2024-01-30T00:15:36;14.83;;;5.13;;
28613;SDS011;15806;53.548;9.964;2024-01-30T00:17:17;13.07;;;5.40;;
28613;SDS011;15806;53.548;9.964;2024-01-30T00:18:57;9.73;;;5.10;;
28613;SDS011;15806;53.548;9.964;2024-01-30T00:20:38;14.67;;;5.60;;
28613;SDS011;15806;53.548;9.964;2024-01-30T00:22:18;12.27;;;5.80;;
28613;SDS011;15806;53.548;9.964;2024-01-30T00:23:59;12.53;;;5.33;;
28613;SDS011;15806;53.548;9.964;2024-01-30T00:25:39;13.03;;;5.50;;
28613;SDS011;15806;53.548;9.964;2024-01-30T00:27:21;17.47;;;6.13;;
28613;SDS011;15806;53.548;9.964;2024-01-30T00:29:02;10.50;;;5.03;;
28613;SDS011;15806;53.548;9.964;2024-01-30T00:30:42;15.97;;;5.17;;
28613;SDS011;15806;53.548;9.964;2024-01-30T00:32:23;13.00;;;4.90;;
28613;SDS011;15806;53.548;9.964;2024-01-30T00:34:03;16.63;;;5.30;;
28613;SDS011;15806;53.548;9.964;2024-01-30T00:35:44;13.97;;;5.77;;
28613;SDS011;15806;53.548;9.964;2024-01-30T00:37:24;17.73;;;6.13;;
28613;SDS011;15806;53.548;9.964;2024-01-30T00:39:05;11.17;;;5.33;;
28613;SDS011;15806;53.548;9.964;2024-01-30T00:40:45;11.03;;;5.17;;
28613;SDS011;15806;53.548;9.964;2024-01-30T00:42:26;13.03;;;5.17;;
28613;SDS011;15806;53.548;9.964;2024-01-30T00:44:06;12.40;;;5.40;;
28613;SDS011;15806;53.548;9.964;2024-01-30T00:45:47;9.43;;;4.70;;
28613;SDS011;15806;53.548;9.964;2024-01-30T00:47:28;11.20;;;4.73;;
28613;SDS011;15806;53.548;9.964;2024-01-30T00:50:50;13.43;;;4.70;;
28613;SDS011;15806;53.548;9.964;2024-01-30T00:52:30;8.03;;;4.17;;
28613;SDS011;15806;53.548;9.964;2024-01-30T00:54:11;11.80;;;4.80;;
28613;SDS011;15806;53.548;9.964;2024-01-30T00:55:52;14.70;;;5.37;;
28613;SDS011;15806;53.548;9.964;2024-01-30T00:57:32;9.63;;;4.60;;
28613;SDS011;15806;53.548;9.964;2024-01-30T00:59:12;13.47;;;5.17;;
28613;SDS011;15806;53.548;9.964;2024-01-30T01:00:53;11.53;;;4.63;;
28613;SDS011;15806;53.548;9.964;2024-01-30T01:02:34;11.90;;;5.27;;
28613;SDS011;15806;53.548;9.964;2024-01-30T01:04:15;13.65;;;5.45;;
28613;SDS011;15806;53.548;9.964;2024-01-30T01:05:55;13.33;;;5.33;;
28613;SDS011;15806;53.548;9.964;2024-01-30T01:07:37;10.75;;;4.65;;
28613;SDS011;15806;53.548;9.964;2024-01-30T01:09:18;11.73;;;5.77;;
28613;SDS011;15806;53.548;9.964;2024-01-30T01:10:58;9.43;;;4.40;;
28613;SDS011;15806;53.548;9.964;2024-01-30T01:12:39;10.23;;;5.03;;
28613;SDS011;15806;53.548;9.964;2024-01-30T01:14:20;12.03;;;5.33;;
28613;SDS011;15806;53.548;9.964;2024-01-30T01:16:00;11.00;;;5.60;;
28613;SDS011;15806;53.548;9.964;2024-01-30T01:17:41;10.00;;;5.03;;
28613;SDS011;15806;53.548;9.964;2024-01-30T01:19:21;13.47;;;5.07;;
28613;SDS011;15806;53.548;9.964;2024-01-30T01:21:02;12.70;;;5.63;;
28613;SDS011;15806;53.548;9.964;2024-01-30T01:22:42;14.20;;;5.63;;
28613;SDS011;15806;53.548;9.964;2024-01-30T01:24:23;12.33;;;4.73;;
28613;SDS011;15806;53.548;9.964;2024-01-30T01:26:04;9.37;;;4.70;;
28613;SDS011;15806;53.548;9.964;2024-01-30T01:27:44;10.20;;;5.03;;
28613;SDS011;15806;53.548;9.964;2024-01-30T01:29:25;14.00;;;5.53;;
28613;SDS011;15806;53.548;9.964;2024-01-30T01:31:05;12.97;;;4.87;;
28613;SDS011;15806;53.548;9.964;2024-01-30T01:32:46;12.30;;;4.73;;
28613;SDS011;15806;53.548;9.964;2024-01-30T01:34:27;11.38;;;4.40;;
28613;SDS011;15806;53.548;9.964;2024-01-30T01:36:07;15.30;;;5.33;;
28613;SDS011;15806;53.548;9.964;2024-01-30T01:37:48;14.57;;;4.90;;
28613;SDS011;15806;53.548;9.964;2024-01-30T01:39:28;10.87;;;4.60;;
28613;SDS011;15806;53.548;9.964;2024-01-30T01:41:10;11.85;;;4.97;;
28613;SDS011;15806;53.548;9.964;2024-01-30T01:42:51;8.77;;;4.20;;
28613;SDS011;15806;53.548;9.964;2024-01-30T01:44:32;9.07;;;4.90;;
28613;SDS011;15806;53.548;9.964;2024-01-30T01:46:12;10.13;;;4.90;;
28613;SDS011;15806;53.548;9.964;2024-01-30T01:47:53;9.23;;;4.60;;
28613;SDS011;15806;53.548;9.964;2024-01-30T01:49:34;9.23;;;4.72;;
28613;SDS011;15806;53.548;9.964;2024-01-30T01:51:14;8.50;;;4.60;;
28613;SDS011;15806;53.548;9.964;2024-01-30T01:54:36;10.25;;;4.20;;
28613;SDS011;15806;53.548;9.964;2024-01-30T01:56:18;13.27;;;5.00;;
28613;SDS011;15806;53.548;9.964;2024-01-30T01:57:58;10.17;;;4.27;;
28613;SDS011;15806;53.548;9.964;2024-01-30T01:59:39;13.70;;;4.33;;
28613;SDS011;15806;53.548;9.964;2024-01-30T02:01:20;10.77;;;4.90;;
28613;SDS011;15806;53.548;9.964;2024-01-30T02:03:03;10.52;;;4.95;;
28613;SDS011;15806;53.548;9.964;2024-01-30T02:04:45;8.68;;;4.55;;
28613;SDS011;15806;53.548;9.964;2024-01-30T02:06:26;9.53;;;4.87;;
28613;SDS011;15806;53.548;9.964;2024-01-30T02:08:07;12.18;;;5.60;;
28613;SDS011;15806;53.548;9.964;2024-01-30T02:09:49;11.55;;;5.28;;
28613;SDS011;15806;53.548;9.964;2024-01-30T02:11:29;10.77;;;4.50;;
28613;SDS011;15806;53.548;9.964;2024-01-30T02:13:10;9.63;;;4.63;;
28613;SDS011;15806;53.548;9.964;2024-01-30T02:14:50;11.77;;;5.03;;
28613;SDS011;15806;53.548;9.964;2024-01-30T02:16:31;13.77;;;5.77;;
28613;SDS011;15806;53.548;9.964;2024-01-30T02:18:12;10.98;;;5.13;;
28613;SDS011;15806;53.548;9.964;2024-01-30T02:19:52;10.40;;;4.77;;
28613;SDS011;15806;53.548;9.964;2024-01-30T02:21:33;10.20;;;5.17;;
28613;SDS011;15806;53.548;9.964;2024-01-30T02:23:15;12.97;;;5.70;;
28613;SDS011;15806;53.548;9.964;2024-01-30T02:24:56;11.63;;;4.75;;
28613;SDS011;15806;53.548;9.964;2024-01-30T02:26:36;9.40;;;4.13;;
28613;SDS011;15806;53.548;9.964;2024-01-30T02:28:17;10.37;;;4.97;;
28613;SDS011;15806;53.548;9.964;2024-01-30T02:29:57;13.20;;;5.30;;
28613;SDS011;15806;53.548;9.964;2024-01-30T02:31:38;13.33;;;5.13;;
28613;SDS011;15806;53.548;9.964;2024-01-30T02:33:18;8.70;;;4.90;;
28613;SDS011;15806;53.548;9.964;2024-01-30T02:34:59;10.50;;;4.37;;
28613;SDS011;15806;53.548;9.964;2024-01-30T02:36:42;9.73;;;4.70;;
28613;SDS011;15806;53.548;9.964;2024-01-30T02:38:23;13.23;;;5.25;;
28613;SDS011;15806;53.548;9.964;2024-01-30T02:40:04;11.97;;;5.27;;
28613;SDS011;15806;53.548;9.964;2024-01-30T02:41:46;9.85;;;4.93;;
28613;SDS011;15806;53.548;9.964;2024-01-30T02:43:26;10.83;;;4.63;;
28613;SDS011;15806;53.548;9.964;2024-01-30T02:45:08;11.80;;;4.80;;
28613;SDS011;15806;53.548;9.964;2024-01-30T02:46:49;13.63;;;4.85;;
28613;SDS011;15806;53.548;9.964;2024-01-30T02:48:30;9.37;;;4.97;;
28613;SDS011;15806;53.548;9.964;2024-01-30T02:50:10;9.00;;;4.77;;
28613;SDS011;15806;53.548;9.964;2024-01-30T02:51:51;11.40;;;4.77;;
28613;SDS011;15806;53.548;9.964;2024-01-30T02:53:33;11.40;;;4.90;;
28613;SDS011;15806;53.548;9.964;2024-01-30T02:55:13;10.77;;;4.77;;
28613;SDS011;15806;53.548;9.964;2024-01-30T02:56:54;10.93;;;5.43;;
28613;SDS011;15806;53.548;9.964;2024-01-30T02:58:37;11.87;;;5.23;;
28613;SDS011;15806;53.548;9.964;2024-01-30T03:00:19;11.07;;;5.90;;
28613;SDS011;15806;53.548;9.964;2024-01-30T03:03:40;12.52;;;5.72;;
28613;SDS011;15806;53.548;9.964;2024-01-30T03:05:21;16.90;;;5.10;;
28613;SDS011;15806;53.548;9.964;2024-01-30T03:07:01;12.73;;;5.20;;
28613;SDS011;15806;53.548;9.964;2024-01-30T03:08:42;12.57;;;5.50;;
28613;SDS011;15806;53.548;9.964;2024-01-30T03:10:22;11.90;;;5.60;;
28613;SDS011;15806;53.548;9.964;2024-01-30T03:12:03;9.90;;;4.97;;
28613;SDS011;15806;53.548;9.964;2024-01-30T03:13:44;14.15;;;5.57;;
28613;SDS011;15806;53.548;9.964;2024-01-30T03:15:25;9.50;;;5.00;;
28613;SDS011;15806;53.548;9.964;2024-01-30T03:17:05;11.70;;;5.00;;
28613;SDS011;15806;53.548;9.964;2024-01-30T03:18:46;10.93;;;5.67;;
28613;SDS011;15806;53.548;9.964;2024-01-30T03:20:26;11.93;;;5.00;;
28613;SDS011;15806;53.548;9.964;2024-01-30T03:22:07;13.13;;;5.43;;
28613;SDS011;15806;53.548;9.964;2024-01-30T03:23:47;18.03;;;5.10;;
28613;SDS011;15806;53.548;9.964;2024-01-30T03:25:29;14.48;;;4.95;;
28613;SDS011;15806;53.548;9.964;2024-01-30T03:27:10;10.60;;;5.07;;
28613;SDS011;15806;53.548;9.964;2024-01-30T03:28:50;8.13;;;4.33;;
28613;SDS011;15806;53.548;9.964;2024-01-30T03:30:31;16.67;;;4.67;;
28613;SDS011;15806;53.548;9.964;2024-01-30T03:32:11;12.53;;;5.73;;
28613;SDS011;15806;53.548;9.964;2024-01-30T03:33:52;13.00;;;5.47;;
28613;SDS011;15806;53.548;9.964;2024-01-30T03:35:32;14.53;;;6.07;;
28613;SDS011;15806;53.548;9.964;2024-01-30T03:37:13;12.53;;;5.23;;
28613;SDS011;15806;53.548;9.964;2024-01-30T03:38:53;10.10;;;5.00;;
28613;SDS011;15806;53.548;9.964;2024-01-30T03:40:34;9.93;;;5.40;;
28613;SDS011;15806;53.548;9.964;2024-01-30T03:42:14;10.83;;;5.00;;
28613;SDS011;15806;53.548;9.964;2024-01-30T03:43:55;10.57;;;5.73;;
28613;SDS011;15806;53.548;9.964;2024-01-30T03:45:35;11.00;;;5.03;;
28613;SDS011;15806;53.548;9.964;2024-01-30T03:47:16;14.20;;;5.90;;
28613;SDS011;15806;53.548;9.964;2024-01-30T03:48:56;13.43;;;5.27;;
28613;SDS011;15806;53.548;9.964;2024-01-30T03:50:37;16.40;;;5.73;;
28613;SDS011;15806;53.548;9.964;2024-01-30T03:52:19;16.87;;;5.07;;
28613;SDS011;15806;53.548;9.964;2024-01-30T03:55:40;11.00;;;4.28;;
28613;SDS011;15806;53.548;9.964;2024-01-30T03:57:20;9.57;;;5.30;;
28613;SDS011;15806;53.548;9.964;2024-01-30T03:59:01;12.97;;;5.63;;
28613;SDS011;15806;53.548;9.964;2024-01-30T04:00:41;13.50;;;5.63;;
28613;SDS011;15806;53.548;9.964;2024-01-30T04:02:22;11.00;;;5.47;;
28613;SDS011;15806;53.548;9.964;2024-01-30T04:04:02;11.13;;;4.77;;
28613;SDS011;15806;53.548;9.964;2024-01-30T04:05:43;14.93;;;5.67;;
28613;SDS011;15806;53.548;9.964;2024-01-30T04:07:23;15.27;;;5.70;;
28613;SDS011;15806;53.548;9.964;2024-01-30T04:09:04;11.90;;;5.73;;
28613;SDS011;15806;53.548;9.964;2024-01-30T04:10:44;12.87;;;6.20;;
28613;SDS011;15806;53.548;9.964;2024-01-30T04:12:25;10.88;;;5.43;;
28613;SDS011;15806;53.548;9.964;2024-01-30T04:14:06;16.73;;;6.00;;
28613;SDS011;15806;53.548;9.964;2024-01-30T04:15:46;12.70;;;5.60;;
28613;SDS011;15806;53.548;9.964;2024-01-30T04:17:27;11.40;;;5.47;;
28613;SDS011;15806;53.548;9.964;2024-01-30T04:19:07;13.00;;;5.80;;
28613;SDS011;15806;53.548;9.964;2024-01-30T04:20:48;13.37;;;5.53;;
28613;SDS011;15806;53.548;9.964;2024-01-30T04:22:29;13.13;;;5.93;;
28613;SDS011;15806;53.548;9.964;2024-01-30T04:24:09;12.37;;;5.47;;
28613;SDS011;15806;53.548;9.964;2024-01-30T04:25:50;13.70;;;5.83;;
28613;SDS011;15806;53.548;9.964;2024-01-30T04:27:30;13.17;;;5.60;;
28613;SDS011;15806;53.548;9.964;2024-01-30T04:29:10;11.77;;;6.03;;
28613;SDS011;15806;53.548;9.964;2024-01-30T04:30:51;13.40;;;6.87;;
28613;SDS011;15806;53.548;9.964;2024-01-30T04:32:32;13.33;;;6.17;;
28613;SDS011;15806;53.548;9.964;2024-01-30T04:34:12;12.38;;;5.25;;
28613;SDS011;15806;53.548;9.964;2024-01-30T04:35:53;9.53;;;6.10;;
28613;SDS011;15806;53.548;9.964;2024-01-30T04:37:33;17.77;;;6.70;;
28613;SDS011;15806;53.548;9.964;2024-01-30T04:39:14;10.07;;;5.47;;
28613;SDS011;15806;53.548;9.964;2024-01-30T04:40:54;10.07;;;5.67;;
28613;SDS011;15806;53.548;9.964;2024-01-30T04:42:35;16.43;;;7.30;;
28613;SDS011;15806;53.548;9.964;2024-01-30T04:44:16;13.30;;;5.07;;
28613;SDS011;15806;53.548;9.964;2024-01-30T04:45:56;11.53;;;6.10;;
28613;SDS011;15806;53.548;9.964;2024-01-30T04:47:37;11.10;;;5.97;;
28613;SDS011;15806;53.548;9.964;2024-01-30T04:49:17;12.70;;;5.93;;
28613;SDS011;15806;53.548;9.964;2024-01-30T04:50:58;15.97;;;6.00;;
28613;SDS011;15806;53.548;9.964;2024-01-30T04:52:38;13.10;;;5.47;;
28613;SDS011;15806;53.548;9.964;2024-01-30T04:54:19;12.97;;;5.17;;
28613;SDS011;15806;53.548;9.964;2024-01-30T04:55:59;10.50;;;5.27;;
28613;SDS011;15806;53.548;9.964;2024-01-30T04:57:40;11.03;;;5.47;;
28613;SDS011;15806;53.548;9.964;2024-01-30T04:59:20;17.90;;;6.23;;
28613;SDS011;15806;53.548;9.964;2024-01-30T05:01:01;13.77;;;6.40;;
28613;SDS011;15806;53.548;9.964;2024-01-30T05:02:42;11.70;;;5.45;;
28613;SDS011;15806;53.548;9.964;2024-01-30T05:04:24;13.33;;;5.97;;
28613;SDS011;15806;53.548;9.964;2024-01-30T05:07:45;10.98;;;5.63;;
28613;SDS011;15806;53.548;9.964;2024-01-30T05:09:25;14.43;;;6.83;;
28613;SDS011;15806;53.548;9.964;2024-01-30T05:11:06;17.57;;;6.57;;
28613;SDS011;15806;53.548;9.964;2024-01-30T05:12:46;17.90;;;8.20;;
28613;SDS011;15806;53.548;9.964;2024-01-30T05:14:27;16.80;;;6.80;;
28613;SDS011;15806;53.548;9.964;2024-01-30T05:16:07;13.50;;;6.07;;
28613;SDS011;15806;53.548;9.964;2024-01-30T05:17:48;19.50;;;6.33;;
28613;SDS011;15806;53.548;9.964;2024-01-30T05:19:28;15.70;;;5.67;;
28613;SDS011;15806;53.548;9.964;2024-01-30T05:21:10;14.87;;;6.30;;
28613;SDS011;15806;53.548;9.964;2024-01-30T05:22:50;15.02;;;6.30;;
28613;SDS011;15806;53.548;9.964;2024-01-30T05:24:31;15.50;;;6.57;;
28613;SDS011;15806;53.548;9.964;2024-01-30T05:26:11;14.17;;;6.63;;
28613;SDS011;15806;53.548;9.964;2024-01-30T05:27:52;14.97;;;6.77;;
28613;SDS011;15806;53.548;9.964;2024-01-30T05:29:32;13.53;;;5.90;;
28613;SDS011;15806;53.548;9.964;2024-01-30T05:31:13;18.23;;;6.33;;
28613;SDS011;15806;53.548;9.964;2024-01-30T05:32:55;13.70;;;6.80;;
28613;SDS011;15806;53.548;9.964;2024-01-30T05:34:35;16.25;;;6.40;;
28613;SDS011;15806;53.548;9.964;2024-01-30T05:36:16;14.43;;;6.67;;
28613;SDS011;15806;53.548;9.964;2024-01-30T05:37:56;15.37;;;6.53;;
28613;SDS011;15806;53.548;9.964;2024-01-30T05:39:37;14.53;;;6.20;;
28613;SDS011;15806;53.548;9.964;2024-01-30T05:41:18;17.13;;;6.73;;
28613;SDS011;15806;53.548;9.964;2024-01-30T05:42:58;13.95;;;6.43;;
28613;SDS011;15806;53.548;9.964;2024-01-30T05:44:39;13.30;;;6.00;;
28613;SDS011;15806;53.548;9.964;2024-01-30T05:46:19;22.17;;;7.00;;
28613;SDS011;15806;53.548;9.964;2024-01-30T05:48:00;12.57;;;6.53;;
28613;SDS011;15806;53.548;9.964;2024-01-30T05:49:40;15.83;;;6.37;;
28613;SDS011;15806;53.548;9.964;2024-01-30T05:51:21;14.07;;;6.63;;
28613;SDS011;15806;53.548;9.964;2024-01-30T05:53:02;21.10;;;7.13;;
28613;SDS011;15806;53.548;9.964;2024-01-30T05:54:42;15.93;;;6.57;;
28613;SDS011;15806;53.548;9.964;2024-01-30T05:56:23;17.03;;;7.30;;
28613;SDS011;15806;53.548;9.964;2024-01-30T05:58:03;16.80;;;6.70;;
28613;SDS011;15806;53.548;9.964;2024-01-30T05:59:44;14.63;;;6.90;;
28613;SDS011;15806;53.548;9.964;2024-01-30T06:01:25;14.25;;;6.97;;
28613;SDS011;15806;53.548;9.964;2024-01-30T06:03:05;18.67;;;7.43;;
28613;SDS011;15806;53.548;9.964;2024-01-30T06:04:46;12.73;;;7.00;;
28613;SDS011;15806;53.548;9.964;2024-01-30T06:06:26;15.90;;;7.67;;
28613;SDS011;15806;53.548;9.964;2024-01-30T06:08:07;15.47;;;6.30;;
28613;SDS011;15806;53.548;9.964;2024-01-30T06:09:47;14.60;;;6.97;;
28613;SDS011;15806;53.548;9.964;2024-01-30T06:11:28;12.70;;;6.37;;
28613;SDS011;15806;53.548;9.964;2024-01-30T06:13:08;15.37;;;7.23;;
28613;SDS011;15806;53.548;9.964;2024-01-30T06:14:49;10.77;;;6.23;;
28613;SDS011;15806;53.548;9.964;2024-01-30T06:16:30;11.23;;;5.97;;
28613;SDS011;15806;53.548;9.964;2024-01-30T06:19:51;16.70;;;7.20;;
28613;SDS011;15806;53.548;9.964;2024-01-30T06:21:32;15.30;;;6.50;;
28613;SDS011;15806;53.548;9.964;2024-01-30T06:23:12;14.07;;;6.03;;
28613;SDS011;15806;53.548;9.964;2024-01-30T06:24:53;17.27;;;6.33;;
28613;SDS011;15806;53.548;9.964;2024-01-30T06:26:33;17.00;;;6.80;;
28613;SDS011;15806;53.548;9.964;2024-01-30T06:28:14;12.90;;;6.57;;
28613;SDS011;15806;53.548;9.964;2024-01-30T06:29:54;15.83;;;7.23;;
28613;SDS011;15806;53.548;9.964;2024-01-30T06:31:41;20.80;;;6.33;;
28613;SDS011;15806;53.548;9.964;2024-01-30T06:33:22;12.45;;;6.68;;
28613;SDS011;15806;53.548;9.964;2024-01-30T06:35:02;18.00;;;6.17;;
28613;SDS011;15806;53.548;9.964;2024-01-30T06:36:43;19.77;;;6.63;;
28613;SDS011;15806;53.548;9.964;2024-01-30T06:38:24;14.70;;;7.43;;
28613;SDS011;15806;53.548;9.964;2024-01-30T06:40:04;16.93;;;7.43;;
28613;SDS011;15806;53.548;9.964;2024-01-30T06:41:46;17.15;;;7.45;;
28613;SDS011;15806;53.548;9.964;2024-01-30T06:43:26;21.90;;;7.07;;
28613;SDS011;15806;53.548;9.964;2024-01-30T06:45:07;14.60;;;7.43;;
28613;SDS011;15806;53.548;9.964;2024-01-30T06:46:48;17.40;;;7.88;;
28613;SDS011;15806;53.548;9.964;2024-01-30T06:48:28;20.83;;;7.47;;
28613;SDS011;15806;53.548;9.964;2024-01-30T06:50:09;16.23;;;7.63;;
28613;SDS011;15806;53.548;9.964;2024-01-30T06:51:49;17.53;;;7.33;;
28613;SDS011;15806;53.548;9.964;2024-01-30T06:53:30;18.77;;;7.90;;
28613;SDS011;15806;53.548;9.964;2024-01-30T06:55:10;17.70;;;7.70;;
28613;SDS011;15806;53.548;9.964;2024-01-30T06:56:51;18.40;;;7.53;;
28613;SDS011;15806;53.548;9.964;2024-01-30T06:58:31;21.30;;;7.57;;
28613;SDS011;15806;53.548;9.964;2024-01-30T07:00:12;19.43;;;7.13;;
28613;SDS011;15806;53.548;9.964;2024-01-30T07:01:53;18.15;;;7.90;;
28613;SDS011;15806;53.548;9.964;2024-01-30T07:03:34;15.97;;;7.20;;
28613;SDS011;15806;53.548;9.964;2024-01-30T07:05:14;15.27;;;7.23;;
28613;SDS011;15806;53.548;9.964;2024-01-30T07:06:55;16.77;;;7.77;;
28613;SDS011;15806;53.548;9.964;2024-01-30T07:08:35;17.50;;;7.53;;
28613;SDS011;15806;53.548;9.964;2024-01-30T07:10:16;20.92;;;7.10;;
28613;SDS011;15806;53.548;9.964;2024-01-30T07:11:56;16.13;;;8.10;;
28613;SDS011;15806;53.548;9.964;2024-01-30T07:13:37;14.03;;;6.17;;
28613;SDS011;15806;53.548;9.964;2024-01-30T07:15:17;19.80;;;6.77;;
28613;SDS011;15806;53.548;9.964;2024-01-30T07:16:59;21.90;;;7.63;;
28613;SDS011;15806;53.548;9.964;2024-01-30T07:18:40;15.63;;;6.65;;
28613;SDS011;15806;53.548;9.964;2024-01-30T07:20:21;22.73;;;7.63;;
28613;SDS011;15806;53.548;9.964;2024-01-30T07:22:01;17.37;;;8.40;;
28613;SDS011;15806;53.548;9.964;2024-01-30T07:23:42;12.17;;;6.43;;
28613;SDS011;15806;53.548;9.964;2024-01-30T07:25:22;19.90;;;6.30;;
28613;SDS011;15806;53.548;9.964;2024-01-30T07:27:03;19.73;;;7.77;;
28613;SDS011;15806;53.548;9.964;2024-01-30T07:28:43;19.20;;;7.47;;
28613;SDS011;15806;53.548;9.964;2024-01-30T07:30:24;16.90;;;7.97;;
28613;SDS011;15806;53.548;9.964;2024-01-30T07:32:04;17.03;;;8.20;;
28613;SDS011;15806;53.548;9.964;2024-01-30T07:33:45;17.67;;;7.72;;
28613;SDS011;15806;53.548;9.964;2024-01-30T07:35:26;19.88;;;7.68;;
28613;SDS011;15806;53.548;9.964;2024-01-30T07:37:07;19.37;;;8.30;;
28613;SDS011;15806;53.548;9.964;2024-01-30T07:38:47;14.33;;;7.53;;
28613;SDS011;15806;53.548;9.964;2024-01-30T07:40:29;19.77;;;8.13;;
28613;SDS011;15806;53.548;9.964;2024-01-30T07:42:09;20.80;;;8.82;;
28613;SDS011;15806;53.548;9.964;2024-01-30T07:43:50;18.27;;;7.57;;
28613;SDS011;15806;53.548;9.964;2024-01-30T07:45:30;15.37;;;6.63;;
28613;SDS011;15806;53.548;9.964;2024-01-30T07:47:11;22.20;;;7.60;;
28613;SDS011;15806;53.548;9.964;2024-01-30T07:48:51;13.73;;;6.93;;
28613;SDS011;15806;53.548;9.964;2024-01-30T07:50:32;20.63;;;6.97;;
28613;SDS011;15806;53.548;9.964;2024-01-30T07:52:12;15.03;;;6.63;;
28613;SDS011;15806;53.548;9.964;2024-01-30T07:53:53;15.70;;;7.47;;
28613;SDS011;15806;53.548;9.964;2024-01-30T07:57:53;18.55;;;7.35;;
28613;SDS011;15806;53.548;9.964;2024-01-30T07:59:34;15.45;;;7.55;;
28613;SDS011;15806;53.548;9.964;2024-01-30T08:01:16;16.80;;;7.20;;
28613;SDS011;15806;53.548;9.964;2024-01-30T08:02:57;17.43;;;7.83;;
28613;SDS011;15806;53.548;9.964;2024-01-30T08:04:37;19.67;;;8.03;;
28613;SDS011;15806;53.548;9.964;2024-01-30T08:06:18;17.33;;;7.20;;
28613;SDS011;15806;53.548;9.964;2024-01-30T08:07:58;20.60;;;8.10;;
28613;SDS011;15806;53.548;9.964;2024-01-30T08:09:39;20.37;;;7.50;;
28613;SDS011;15806;53.548;9.964;2024-01-30T08:11:20;19.77;;;7.30;;
28613;SDS011;15806;53.548;9.964;2024-01-30T08:13:01;18.08;;;8.10;;
28613;SDS011;15806;53.548;9.964;2024-01-30T08:14:41;20.30;;;8.57;;
28613;SDS011;15806;53.548;9.964;2024-01-30T08:16:22;23.67;;;8.37;;
28613;SDS011;15806;53.548;9.964;2024-01-30T08:18:03;18.47;;;8.23;;
28613;SDS011;15806;53.548;9.964;2024-01-30T08:19:43;19.43;;;8.10;;
28613;SDS011;15806;53.548;9.964;2024-01-30T08:21:24;23.40;;;7.90;;
28613;SDS011;15806;53.548;9.964;2024-01-30T08:23:04;19.33;;;8.07;;
28613;SDS011;15806;53.548;9.964;2024-01-30T08:24:45;27.77;;;9.20;;
28613;SDS011;15806;53.548;9.964;2024-01-30T08:26:25;21.60;;;8.40;;
28613;SDS011;15806;53.548;9.964;2024-01-30T08:28:08;19.45;;;7.13;;
28613;SDS011;15806;53.548;9.964;2024-01-30T08:29:49;19.37;;;8.73;;
28613;SDS011;15806;53.548;9.964;2024-01-30T08:31:29;22.83;;;8.57;;
28613;SDS011;15806;53.548;9.964;2024-01-30T08:33:10;23.77;;;8.20;;
28613;SDS011;15806;53.548;9.964;2024-01-30T08:34:50;18.50;;;9.47;;
28613;SDS011;15806;53.548;9.964;2024-01-30T08:36:31;21.53;;;9.20;;
28613;SDS011;15806;53.548;9.964;2024-01-30T08:38:11;17.30;;;7.93;;
28613;SDS011;15806;53.548;9.964;2024-01-30T08:39:52;22.40;;;8.90;;
28613;SDS011;15806;53.548;9.964;2024-01-30T08:41:32;21.20;;;8.63;;
28613;SDS011;15806;53.548;9.964;2024-01-30T08:43:13;19.03;;;8.90;;
28613;SDS011;15806;53.548;9.964;2024-01-30T08:44:53;21.23;;;8.30;;
28613;SDS011;15806;53.548;9.964;2024-01-30T08:46:34;18.63;;;8.17;;
28613;SDS011;15806;53.548;9.964;2024-01-30T08:48:15;18.33;;;8.30;;
28613;SDS011;15806;53.548;9.964;2024-01-30T08:49:55;19.47;;;7.57;;
28613;SDS011;15806;53.548;9.964;2024-01-30T08:51:35;15.33;;;7.23;;
28613;SDS011;15806;53.548;9.964;2024-01-30T08:53:16;21.80;;;9.07;;
28613;SDS011;15806;53.548;9.964;2024-01-30T08:54:57;17.77;;;8.90;;
28613;SDS011;15806;53.548;9.964;2024-01-30T08:56:37;19.60;;;8.40;;
28613;SDS011;15806;53.548;9.964;2024-01-30T08:58:18;16.63;;;8.17;;
28613;SDS011;15806;53.548;9.964;2024-01-30T08:59:58;21.43;;;8.27;;
28613;SDS011;15806;53.548;9.964;2024-01-30T09:01:39;17.13;;;7.73;;
28613;SDS011;15806;53.548;9.964;2024-01-30T09:03:19;22.37;;;7.97;;
28613;SDS011;15806;53.548;9.964;2024-01-30T09:05:00;18.63;;;6.63;;
28613;SDS011;15806;53.548;9.964;2024-01-30T09:06:40;17.30;;;8.10;;
28613;SDS011;15806;53.548;9.964;2024-01-30T09:08:21;19.30;;;8.33;;
28613;SDS011;15806;53.548;9.964;2024-01-30T09:10:01;16.73;;;8.30;;
28613;SDS011;15806;53.548;9.964;2024-01-30T09:11:42;20.50;;;9.33;;
28613;SDS011;15806;53.548;9.964;2024-01-30T09:13:22;17.30;;;7.70;;
28613;SDS011;15806;53.548;9.964;2024-01-30T09:15:03;16.57;;;7.77;;
28613;SDS011;15806;53.548;9.964;2024-01-30T09:16:44;20.20;;;8.80;;
28613;SDS011;15806;53.548;9.964;2024-01-30T09:18:24;18.47;;;7.90;;
28613;SDS011;15806;53.548;9.964;2024-01-30T09:20:05;15.20;;;7.23;;
28613;SDS011;15806;53.548;9.964;2024-01-30T09:21:46;19.60;;;8.30;;
28613;SDS011;15806;53.548;9.964;2024-01-30T09:23:27;16.17;;;7.23;;
28613;SDS011;15806;53.548;9.964;2024-01-30T09:25:08;16.98;;;8.27;;
28613;SDS011;15806;53.548;9.964;2024-01-30T09:26:48;18.87;;;8.33;;
28613;SDS011;15806;53.548;9.964;2024-01-30T09:28:29;19.43;;;8.60;;
28613;SDS011;15806;53.548;9.964;2024-01-30T09:30:09;19.27;;;8.50;;
28613;SDS011;15806;53.548;9.964;2024-01-30T09:31:50;23.40;;;10.07;;
28613;SDS011;15806;53.548;9.964;2024-01-30T09:33:30;21.63;;;9.40;;
28613;SDS011;15806;53.548;9.964;2024-01-30T09:35:11;24.07;;;8.47;;
28613;SDS011;15806;53.548;9.964;2024-01-30T09:36:51;19.17;;;9.43;;
28613;SDS011;15806;53.548;9.964;2024-01-30T09:38:32;20.03;;;8.77;;
28613;SDS011;15806;53.548;9.964;2024-01-30T09:40:12;24.90;;;10.67;;
28613;SDS011;15806;53.548;9.964;2024-01-30T09:43:53;22.17;;;9.75;;
28613;SDS011;15806;53.548;9.964;2024-01-30T09:45:36;25.40;;;8.88;;
28613;SDS011;15806;53.548;9.964;2024-01-30T09:47:17;16.73;;;8.13;;
28613;SDS011;15806;53.548;9.964;2024-01-30T09:48:58;21.27;;;9.50;;
28613;SDS011;15806;53.548;9.964;2024-01-30T09:50:39;24.27;;;8.68;;
28613;SDS011;15806;53.548;9.964;2024-01-30T09:52:20;19.20;;;9.00;;
28613;SDS011;15806;53.548;9.964;2024-01-30T09:54:01;15.17;;;8.00;;
28613;SDS011;15806;53.548;9.964;2024-01-30T09:57:26;20.50;;;8.57;;
28613;SDS011;15806;53.548;9.964;2024-01-30T09:59:07;20.73;;;8.70;;
28613;SDS011;15806;53.548;9.964;2024-01-30T10:00:48;23.77;;;8.90;;
28613;SDS011;15806;53.548;9.964;2024-01-30T10:02:29;20.00;;;8.83;;
28613;SDS011;15806;53.548;9.964;2024-01-30T10:04:11;15.98;;;8.23;;
28613;SDS011;15806;53.548;9.964;2024-01-30T10:05:52;20.97;;;9.23;;
28613;SDS011;15806;53.548;9.964;2024-01-30T10:07:35;16.13;;;8.20;;
28613;SDS011;15806;53.548;9.964;2024-01-30T10:09:16;24.98;;;8.63;;
28613;SDS011;15806;53.548;9.964;2024-01-30T10:10:56;20.95;;;9.18;;
28613;SDS011;15806;53.548;9.964;2024-01-30T10:12:37;16.03;;;7.77;;
28613;SDS011;15806;53.548;9.964;2024-01-30T10:14:19;14.18;;;7.68;;